Lake Worth, FL

11:05 PM EDT on September 22, 2014 (GMT -0400)
D A N E T S | Change Station
CLOSE
Current Station
Personal Weather Station
Location: Lake Worth, FL
Elevation: 25 ft
Nearby Weather Stations

Elev 25 ft 26.61 °N, 80.17 °W | Updated 24 seconds ago

Rain
Rain
73.2 °F
Feels Like 73.2 °F
N
1.0
Wind Variable Wind from East
Gusts 10.0 mph

Today
High -- | Low -- °F
--% Chance of Precip.
Yesterday
High -- | Low -- °F
Precip. -- in
7:09 AM 7:17 PM
Waning Crescent, 1% visible
Pressure 30.01 in
Visibility 10.0 miles
Clouds Few 500 ft
Scattered Clouds 4000 ft
Mostly Cloudy 16000 ft
Dew Point 72 °F
Humidity 95%
Rainfall 0.00 in
Snow Depth Not available.
UV 0.0 out of 12
Pollen 2.50 out of 12
Ozone Good
PM2.5 Good
Flu Activity Not available.
METAR KPBI 230253Z 34004KT 10SM TS FEW005 SCT040CB BKN160 24/23 A3001 RMK AO2 SLP160 CONS LTGIC E TS E MOV NE CB DSNT NE-SE T02390233 53001 PNO

More Conditions Fewer Conditions

Pressure 30.01 in
Visibility 10.0 miles
Clouds Few 500 ft
Scattered Clouds 4000 ft
Mostly Cloudy 16000 ft
Dew Point 72 °F
Humidity 95%
Rainfall 0.00 in
Snow Depth Not available.
UV 0.0 out of 12
Pollen 2.50 out of 12
Ozone Good
PM2.5 Good
Flu Activity Not available.
METAR KPBI 230253Z 34004KT 10SM TS FEW005 SCT040CB BKN160 24/23 A3001 RMK AO2 SLP160 CONS LTGIC E TS E MOV NE CB DSNT NE-SE T02390233 53001 PNO

More Conditions Fewer Conditions

10-Day Weather Forecast

Almanac

Astronomy

Sep. 22, 2014 Rise Set
Actual Time 7:09 AM EDT 7:17 PM EDT
Civil Twilight 6:46 AM EDT 7:40 PM EDT
Nautical Twilight 6:19 AM EDT 8:07 PM EDT
Astronomical Twilight 5:52 AM EDT 8:34 PM EDT
Moon 5:42 AM EDT (9/22) 6:20 PM EDT (9/22)
Length of Visible Light 12h 54m
Length of Day
12h 07m
Tomorrow will be 1m 34s shorter.
Waning Crescent, 1% of the Moon is Illuminated
Today
Waning Crescent
Sep 24
New
Oct 1
First Quarter
Oct 8
Full
Oct 15
Last Quarter

Today's Extremes

State Highs State Lows

Community

WunderPhotos

Upload Photos

1,755,602 photos uploaded!

Nearby

Air Quality

  Air Quality AQ Index Pollutant
Yesterday Good
PM2.5
Yesterday Good
OZONE
Current Good
PM2.5
Current Good
OZONE
Monday Good
OZONE
Monday Good
PM2.5
Tuesday Good
OZONE
Tuesday Good
PM2.5

Snow Depth

Station Depth Elevation
No new snow has been reported.

Earthquake Activity

City Distance Mag. Time & Date
No recent earthquake activity has been reported nearby.
Minimum magnitude displayed is 2.5.

Coastal Water Temperatures

Place Temperature
Lake Worth, FL 84.9 °F
Virginia Key, FL 84.9 °F

Nearby Weather Stations